Time;durP1;ratioP1;P1;durP2;ratioP2;P2;SDS_P1;SDS_P2;PMS_P1;PMS_P2;Temp;Humidity;BMP_temperature;BMP_pressure;BME280_temperature;BME280_humidity;BME280_pressure;Samples;Min_cycle;Max_cycle;Signal;HPM_P1;HPM_P2
2022/02/11 00:02:20;;;;;;;3.50;1.90;;;;;;;5.66;100.00;99892.78;5082655;28;20060;-77
2022/02/11 00:08:10;;;;;;;4.15;1.73;;;;;;;5.63;100.00;99906.63;5096584;28;20048;-77
2022/02/11 00:10:55;;;;;;;2.65;2.08;;;;;;;5.58;100.00;99908.38;5096656;28;20036;-77
2022/02/11 00:13:39;;;;;;;4.78;2.70;;;;;;;5.46;100.00;99903.25;5096759;28;20067;-77
2022/02/11 00:16:24;;;;;;;3.63;2.08;;;;;;;5.53;100.00;99904.94;5096490;28;20051;-77
2022/02/11 00:19:08;;;;;;;3.25;1.70;;;;;;;5.48;100.00;99898.03;5095626;28;20067;-77
2022/02/11 00:21:53;;;;;;;3.10;1.83;;;;;;;5.54;100.00;99890.22;5081440;28;20044;-77
2022/02/11 00:24:38;;;;;;;4.40;2.05;;;;;;;5.35;100.00;99876.41;5096602;28;20056;-77
2022/02/11 00:33:32;;;;;;;5.27;2.03;;;;;;;5.43;100.00;99900.66;5095576;28;20040;-77
2022/02/11 00:36:16;;;;;;;3.72;2.30;;;;;;;5.46;100.00;99900.66;5095462;28;20100;-77
2022/02/11 01:03:03;;;;;;;6.18;4.05;;;;;;;5.35;100.00;99876.41;5095277;28;20040;-77
2022/02/11 01:05:47;;;;;;;5.53;3.45;;;;;;;5.40;100.00;99887.66;5095918;28;20381;-77
2022/02/11 01:08:31;;;;;;;4.78;3.40;;;;;;;5.31;100.00;99883.34;5095057;28;20040;-77
2022/02/11 01:11:23;;;;;;;5.30;3.35;;;;;;;5.16;100.00;99894.63;5095802;28;20044;-77
2022/02/11 01:14:08;;;;;;;6.88;3.78;;;;;;;5.31;100.00;99896.34;5095763;28;20051;-77
2022/02/11 01:16:56;;;;;;;5.28;3.35;;;;;;;5.34;100.00;99893.72;5095893;28;20426;-77
2022/02/11 01:22:54;;;;;;;6.07;3.25;;;;;;;5.29;100.00;99898.06;5095541;28;20406;-77
2022/02/11 01:35:11;;;;;;;4.45;2.53;;;;;;;5.19;100.00;99903.28;5057856;28;20127;-77
2022/02/11 01:38:14;;;;;;;4.03;3.05;;;;;;;5.21;100.00;99906.75;5057587;28;20041;-77
2022/02/11 01:53:24;;;;;;;4.32;2.83;;;;;;;5.20;100.00;99889.44;5099294;28;20373;-77
2022/02/11 02:03:15;;;;;;;3.80;2.22;;;;;;;5.16;100.00;99873.00;5099235;28;20082;-77
2022/02/11 02:30:00;;;;;;;2.95;1.90;;;;;;;5.05;100.00;99841.88;5092614;28;20060;-77
2022/02/11 02:56:51;;;;;;;2.97;2.28;;;;;;;5.09;100.00;99833.19;5098116;28;20047;-77
2022/02/11 03:35:22;;;;;;;7.65;3.40;;;;;;;4.89;100.00;99819.41;5097332;28;20040;-77
2022/02/11 03:57:18;;;;;;;11.75;5.65;;;;;;;4.97;100.00;99825.44;5096072;28;20456;-77
2022/02/11 04:24:44;;;;;;;4.30;3.28;;;;;;;5.16;100.00;99808.06;5054573;28;20482;-77
2022/02/11 05:00:19;;;;;;;6.57;5.32;;;;;;;5.08;100.00;99779.56;5095242;28;20185;-77
2022/02/11 05:03:03;;;;;;;6.63;4.03;;;;;;;5.09;100.00;99776.06;5095877;28;20106;-77
2022/02/11 05:05:50;;;;;;;7.25;4.97;;;;;;;5.12;100.00;99789.03;5081029;28;20123;-77
2022/02/11 05:08:35;;;;;;;8.35;5.93;;;;;;;5.10;100.00;99788.22;5085032;28;20454;-77
2022/02/11 05:11:19;;;;;;;10.10;6.38;;;;;;;5.10;100.00;99785.63;5085038;28;20040;-77
2022/02/11 05:14:07;;;;;;;9.30;6.47;;;;;;;5.15;100.00;99785.59;5099357;28;20036;-77
2022/02/11 05:16:51;;;;;;;10.48;6.05;;;;;;;5.09;100.00;99777.81;5085000;28;20422;-77
2022/02/11 05:19:36;;;;;;;7.93;5.93;;;;;;;5.13;100.00;99775.22;5113534;28;20079;-77
2022/02/11 05:22:20;;;;;;;6.90;4.90;;;;;;;5.13;100.00;99779.53;5099676;28;20066;-77
2022/02/11 05:25:08;;;;;;;7.00;5.43;;;;;;;5.10;100.00;99766.53;5084811;28;20048;-77
2022/02/11 05:27:52;;;;;;;8.23;5.95;;;;;;;5.10;100.00;99779.53;5099735;28;20044;-77
2022/02/11 05:30:37;;;;;;;13.23;7.53;;;;;;;5.10;100.00;99770.03;5099949;28;20036;-77
2022/02/11 05:33:23;;;;;;;18.42;10.75;;;;;;;5.09;100.00;99775.22;5099680;28;20115;-77
2022/02/11 05:36:08;;;;;;;23.55;13.18;;;;;;;4.90;100.00;99770.06;5099624;28;20434;-77
2022/02/11 05:38:52;;;;;;;20.38;11.90;;;;;;;4.96;100.00;99771.78;5084590;28;20040;-77
2022/02/11 05:41:37;;;;;;;14.43;9.65;;;;;;;5.08;100.00;99776.94;5099523;28;20044;-77
2022/02/11 05:44:21;;;;;;;24.55;12.32;;;;;;;5.09;100.00;99773.47;5099333;28;20453;-77
2022/02/11 05:47:06;;;;;;;27.33;14.73;;;;;;;5.00;100.00;99767.44;5099441;28;20044;-77
2022/02/11 05:49:50;;;;;;;33.70;17.08;;;;;;;4.92;100.00;99752.78;5099485;28;20040;-77
2022/02/11 05:52:36;;;;;;;30.33;16.42;;;;;;;4.95;100.00;99761.44;5098569;28;20491;-77
2022/02/11 05:55:20;;;;;;;26.48;13.77;;;;;;;5.02;100.00;99761.38;5099201;28;20037;-77
2022/02/11 05:58:05;;;;;;;22.48;12.95;;;;;;;5.05;100.00;99755.34;5098443;28;20445;-77
2022/02/11 06:00:49;;;;;;;20.38;11.75;;;;;;;5.06;100.00;99757.91;5098551;28;20437;-76
2022/02/11 06:03:33;;;;;;;14.95;9.40;;;;;;;4.96;100.00;99768.34;5099347;28;20036;-77
2022/02/11 06:06:17;;;;;;;11.35;6.93;;;;;;;5.02;100.00;99763.13;5084070;28;20418;-77
2022/02/11 06:09:02;;;;;;;14.05;8.15;;;;;;;4.96;100.00;99753.63;5098281;28;20036;-76
2022/02/11 06:11:47;;;;;;;11.23;7.53;;;;;;;4.97;100.00;99759.66;5098322;28;20418;-76
2022/02/11 06:14:31;;;;;;;12.48;8.85;;;;;;;4.91;100.00;99748.47;5084021;28;20036;-77
2022/02/11 06:17:16;;;;;;;12.00;8.05;;;;;;;5.00;100.00;99760.53;5111934;28;20039;-77
2022/02/11 06:20:00;;;;;;;11.43;6.72;;;;;;;5.08;100.00;99763.97;5098203;28;20040;-84
2022/02/11 06:22:45;;;;;;;8.48;6.20;;;;;;;5.14;100.00;99774.34;5110436;28;20476;-85
2022/02/11 06:25:29;;;;;;;12.48;7.13;;;;;;;5.17;100.00;99765.69;5096222;28;20480;-85
2022/02/11 06:28:16;;;;;;;9.30;6.60;;;;;;;5.17;100.00;99763.09;5096114;28;20040;-86
2022/02/11 06:31:01;;;;;;;14.18;7.57;;;;;;;5.15;100.00;99763.06;5096725;28;20063;-85
2022/02/11 06:33:45;;;;;;;11.02;6.75;;;;;;;5.23;100.00;99770.84;5081470;28;20106;-86
2022/02/11 06:36:30;;;;;;;15.32;9.35;;;;;;;4.99;100.00;99764.00;5096723;28;20460;-86
2022/02/11 06:39:16;;;;;;;13.63;9.25;;;;;;;5.04;100.00;99758.81;5082092;28;20044;-86
2022/02/11 06:42:01;;;;;;;13.05;9.15;;;;;;;5.04;100.00;99771.78;5109816;28;20051;-87
2022/02/11 06:44:46;;;;;;;20.60;14.13;;;;;;;4.95;100.00;99777.84;5082552;28;20048;-87
2022/02/11 06:47:30;;;;;;;21.35;15.88;;;;;;;4.85;100.00;99774.44;5096979;28;20047;-87
2022/02/11 06:50:15;;;;;;;82.22;44.15;;;;;;;4.92;100.00;99772.69;5096890;28;20047;-86
2022/02/11 06:52:59;;;;;;;171.52;77.57;;;;;;;4.86;100.00;99785.66;5082553;28;20047;-87
2022/02/11 06:55:44;;;;;;;95.28;45.40;;;;;;;4.81;100.00;99785.69;5098339;28;20446;-87
2022/02/11 06:58:28;;;;;;;25.60;14.93;;;;;;;4.72;100.00;99787.44;5083756;28;20040;-87
2022/02/11 07:01:13;;;;;;;64.35;34.35;;;;;;;4.73;100.00;99771.84;5097485;28;20420;-87
2022/02/11 07:03:58;;;;;;;44.72;27.35;;;;;;;4.78;100.00;99788.28;5097975;28;20044;-87
2022/02/11 07:06:43;;;;;;;44.65;31.20;;;;;;;4.86;100.00;99791.72;5097642;28;20055;-87
2022/02/11 07:09:28;;;;;;;504.35;277.30;;;;;;;4.65;100.00;99795.22;5097638;28;20044;-87
2022/02/11 07:12:12;;;;;;;395.85;215.23;;;;;;;4.82;100.00;99791.75;5097521;28;20048;-87
2022/02/11 07:14:56;;;;;;;330.05;216.02;;;;;;;4.76;100.00;99796.94;5097850;28;20040;-87
2022/02/11 07:17:40;;;;;;;266.05;190.00;;;;;;;4.82;100.00;99795.19;5097621;28;20047;-87
2022/02/11 07:20:25;;;;;;;76.78;61.38;;;;;;;4.72;100.00;99800.41;5098284;28;20055;-87
2022/02/11 07:23:09;;;;;;;13.32;10.65;;;;;;;4.54;100.00;99801.28;5097513;28;20052;-87
2022/02/11 07:25:54;;;;;;;14.85;8.23;;;;;;;4.58;100.00;99798.69;5097493;28;20047;-87
2022/02/11 07:28:38;;;;;;;17.75;8.40;;;;;;;4.57;100.00;99794.34;5097232;28;20051;-87
2022/02/11 07:31:22;;;;;;;23.83;11.75;;;;;;;4.65;100.00;99803.00;5096482;28;20102;-85
2022/02/11 07:34:06;;;;;;;25.23;13.00;;;;;;;4.69;100.00;99809.06;5082478;28;20051;-86
2022/02/11 07:36:51;;;;;;;29.10;15.68;;;;;;;4.67;100.00;99809.03;5097662;28;20047;-86
2022/02/11 07:39:35;;;;;;;65.53;34.92;;;;;;;4.55;100.00;99783.13;5096690;28;20339;-86
2022/02/11 07:42:21;;;;;;;95.55;53.30;;;;;;;4.53;100.00;99802.16;5097332;28;20044;-86
2022/02/11 07:45:05;;;;;;;123.72;70.22;;;;;;;4.59;100.00;99794.38;5096874;28;20410;-86
2022/02/11 07:47:50;;;;;;;94.82;54.00;;;;;;;4.65;100.00;99790.03;5082786;28;20104;-86
2022/02/11 07:50:35;;;;;;;31.85;19.52;;;;;;;4.47;100.00;99796.97;5082452;28;20044;-86
2022/02/11 07:53:19;;;;;;;13.35;7.78;;;;;;;4.37;100.00;99804.75;5097117;28;20418;-85
2022/02/11 07:56:04;;;;;;;40.00;19.80;;;;;;;4.33;100.00;99796.97;5097677;28;20047;-85
2022/02/11 07:58:48;;;;;;;29.92;17.98;;;;;;;4.45;100.00;99805.63;5096281;28;20043;-85
2022/02/11 08:01:32;;;;;;;14.68;10.00;;;;;;;4.51;100.00;99809.06;5096825;28;20469;-85
2022/02/11 08:04:17;;;;;;;6.82;4.15;;;;;;;4.38;100.00;99808.19;5096214;28;20109;-85
2022/02/11 08:07:01;;;;;;;7.00;5.10;;;;;;;4.31;100.00;99812.50;5096904;28;20098;-85
2022/02/11 08:09:45;;;;;;;9.75;6.65;;;;;;;4.25;100.00;99822.88;5096788;28;20044;-85
2022/02/11 08:12:34;;;;;;;14.90;10.60;;;;;;;4.25;100.00;99824.63;5081765;28;20039;-85
2022/02/11 08:15:19;;;;;;;18.65;10.90;;;;;;;3.98;100.00;99810.75;5095941;28;20055;-85
2022/02/11 08:18:03;;;;;;;48.78;30.15;;;;;;;3.90;100.00;99809.88;5096177;28;20040;-85
2022/02/11 08:20:48;;;;;;;53.17;26.80;;;;;;;3.91;100.00;99806.44;5096168;28;20109;-85
2022/02/11 08:23:32;;;;;;;66.63;29.77;;;;;;;4.06;100.00;99814.22;5095785;28;20040;-85
2022/02/11 08:26:17;;;;;;;60.88;30.60;;;;;;;4.04;100.00;99809.91;5081725;28;20232;-85
2022/02/11 08:29:04;;;;;;;74.00;35.33;;;;;;;3.91;100.00;99796.06;5081473;28;20104;-85
2022/02/11 08:31:49;;;;;;;44.03;23.08;;;;;;;4.03;100.00;99811.66;5095607;28;20040;-84
2022/02/11 08:34:33;;;;;;;43.30;20.38;;;;;;;3.96;100.00;99803.00;5095941;28;20100;-85
2022/02/11 08:37:17;;;;;;;21.75;12.40;;;;;;;3.94;100.00;99809.03;5081850;28;20044;-84
2022/02/11 08:40:02;;;;;;;14.40;7.88;;;;;;;4.01;100.00;99818.53;5081344;28;20090;-85
2022/02/11 08:42:47;;;;;;;23.08;15.10;;;;;;;3.90;100.00;99823.72;5081365;28;20040;-85
2022/02/11 08:45:32;;;;;;;70.47;48.13;;;;;;;3.92;100.00;99813.34;5096766;28;20054;-85
2022/02/11 08:48:17;;;;;;;41.22;28.92;;;;;;;3.86;100.00;99811.59;5081697;28;20044;-84
2022/02/11 08:51:02;;;;;;;23.55;16.20;;;;;;;3.80;100.00;99811.56;5096179;28;20043;-85
2022/02/11 08:53:49;;;;;;;90.22;48.05;;;;;;;3.79;100.00;99817.63;5096134;28;20101;-85
2022/02/11 08:56:34;;;;;;;61.20;34.60;;;;;;;3.87;100.00;99818.53;5095922;28;20489;-85
2022/02/11 08:59:19;;;;;;;36.03;22.73;;;;;;;3.75;100.00;99810.72;5095427;28;20040;-85
2022/02/11 09:02:08;;;;;;;25.52;15.90;;;;;;;3.79;100.00;99798.63;5095678;28;20139;-85
2022/02/11 09:04:54;;;;;;;18.38;11.68;;;;;;;3.85;100.00;99809.88;5095595;28;20044;-84
2022/02/11 09:07:38;;;;;;;19.83;12.35;;;;;;;3.78;100.00;99804.69;5096109;28;20048;-84
2022/02/11 09:10:26;;;;;;;15.07;11.02;;;;;;;3.81;100.00;99809.88;5095329;28;20075;-85
2022/02/11 09:13:10;;;;;;;9.80;8.13;;;;;;;3.81;100.00;99809.88;5095245;28;20052;-85
2022/02/11 09:15:56;;;;;;;7.93;6.97;;;;;;;3.67;100.00;99821.06;5080924;28;20047;-83
2022/02/11 09:18:40;;;;;;;17.50;12.75;;;;;;;3.65;100.00;99820.19;5080133;28;20036;-84
2022/02/11 09:21:25;;;;;;;13.75;10.48;;;;;;;3.61;100.00;99833.13;5093909;28;20052;-84
2022/02/11 09:24:10;;;;;;;7.18;5.40;;;;;;;3.47;100.00;99828.75;5093375;28;20116;-84
2022/02/11 09:26:55;;;;;;;7.40;4.65;;;;;;;3.40;100.00;99828.72;5094143;28;20457;-84
2022/02/11 09:29:39;;;;;;;8.50;5.35;;;;;;;3.41;100.00;99826.16;5107515;28;20040;-84
2022/02/11 09:32:24;;;;;;;5.22;3.70;;;;;;;3.46;100.00;99833.94;5079095;28;20047;-85
2022/02/11 09:35:10;;;;;;;8.75;5.70;;;;;;;3.44;100.00;99843.41;5095176;28;20040;-84
2022/02/11 09:37:56;;;;;;;4.82;3.85;;;;;;;3.17;100.00;99844.16;5081076;28;20430;-84
2022/02/11 09:40:44;;;;;;;16.98;11.90;;;;;;;3.13;100.00;99855.34;5095747;28;20040;-84
2022/02/11 09:43:29;;;;;;;15.43;10.30;;;;;;;3.02;100.00;99852.66;5094981;28;20350;-84
2022/02/11 09:46:15;;;;;;;8.73;6.45;;;;;;;3.02;100.00;99863.91;5095690;28;20106;-85
2022/02/11 09:49:00;;;;;;;6.53;4.60;;;;;;;2.85;100.00;99870.69;5109840;28;20051;-85
2022/02/11 09:51:46;;;;;;;5.18;3.88;;;;;;;2.92;100.00;99853.47;5095571;28;20051;-85
2022/02/11 09:54:34;;;;;;;6.65;5.03;;;;;;;2.68;100.00;99844.69;5112694;28;20036;-85
2022/02/11 09:57:19;;;;;;;5.25;3.85;;;;;;;2.79;100.00;99866.34;5084833;28;20131;-84
2022/02/11 10:00:05;;;;;;;9.00;5.82;;;;;;;2.77;100.00;99857.69;5099319;28;20044;-84
2022/02/11 10:02:57;;;;;;;5.68;4.25;;;;;;;2.64;100.00;99865.38;5099566;28;20044;-85
2022/02/11 10:05:42;;;;;;;14.57;6.93;;;;;;;2.48;100.00;99869.53;5099188;28;20342;-83
2022/02/11 10:08:29;;;;;;;14.90;7.50;;;;;;;2.44;100.00;99860.88;5084086;28;20112;-87
2022/02/11 10:11:15;;;;;;;13.70;8.65;;;;;;;2.42;100.00;99872.94;5112684;28;20043;-84
2022/02/11 10:14:23;;;;;;;11.32;7.80;;;;;;;2.11;100.00;99871.75;5099562;28;20063;-85
2022/02/11 10:17:19;;;;;;;14.05;9.40;;;;;;;2.09;100.00;99835.59;5112506;28;20050;-86
2022/02/11 10:20:08;;;;;;;20.52;10.52;;;;;;;2.13;100.00;99862.31;5112992;28;20059;-85
2022/02/11 10:23:10;;;;;;;35.80;18.38;;;;;;;2.24;100.00;99857.25;5083448;28;20060;-84
2022/02/11 10:26:02;;;;;;;31.17;14.68;;;;;;;2.33;100.00;99878.00;5098657;28;20119;-85
2022/02/11 10:28:49;;;;;;;16.45;9.32;;;;;;;2.25;100.00;99875.38;5098526;28;20044;-86
2022/02/11 10:31:35;;;;;;;11.18;6.25;;;;;;;2.25;100.00;99872.78;5112723;28;20044;-87
2022/02/11 10:34:20;;;;;;;19.90;10.10;;;;;;;1.97;100.00;99878.50;5098446;28;20047;-85
2022/02/11 10:37:09;;;;;;;11.70;7.20;;;;;;;2.32;100.00;99887.50;5083645;28;20036;-87
2022/02/11 10:39:58;;;;;;;13.20;8.27;;;;;;;2.19;100.00;99895.97;5098212;28;20036;-84
2022/02/11 10:42:44;;;;;;;11.35;6.97;;;;;;;2.28;100.00;99898.66;5111997;28;20067;-87
2022/02/11 10:45:37;;;;;;;12.38;7.85;;;;;;;2.28;100.00;99900.38;5098351;28;20460;-87
2022/02/11 10:48:23;;;;;;;14.70;7.95;;;;;;;2.28;100.00;99888.31;5111831;28;20044;-88
2022/02/11 10:51:20;;;;;;;11.30;6.82;;;;;;;2.34;100.00;99903.03;5097807;28;20118;-83
2022/02/11 10:54:36;;;;;;;12.75;7.22;;;;;;;2.45;100.00;99901.41;5098128;28;20040;-86
2022/02/11 10:57:23;;;;;;;14.85;8.90;;;;;;;2.42;100.00;99908.25;5097398;28;20040;-84
2022/02/11 11:00:08;;;;;;;12.68;7.47;;;;;;;2.38;100.00;99889.28;5112383;28;20040;-85
2022/02/11 11:02:53;;;;;;;9.70;6.05;;;;;;;2.27;100.00;99894.31;5112137;28;20032;-84
2022/02/11 11:05:44;;;;;;;9.88;5.80;;;;;;;2.42;100.00;99914.28;5096643;28;20094;-84
2022/02/11 11:08:33;;;;;;;10.60;6.60;;;;;;;2.36;100.00;99910.78;5098033;28;20339;-84
2022/02/11 11:11:18;;;;;;;15.80;10.60;;;;;;;2.35;100.00;99904.75;5098528;28;20040;-84
2022/02/11 11:14:04;;;;;;;29.42;14.80;;;;;;;2.26;100.00;99909.81;5098444;28;20048;-84
2022/02/11 11:16:51;;;;;;;28.98;20.83;;;;;;;2.27;100.00;99909.81;5098166;28;20046;-83
2022/02/11 11:19:37;;;;;;;20.83;12.02;;;;;;;2.37;100.00;99928.00;5097298;28;20040;-84
2022/02/11 11:22:27;;;;;;;27.80;13.50;;;;;;;2.35;100.00;99940.94;5097528;28;20052;-84
2022/02/11 11:25:12;;;;;;;32.33;16.38;;;;;;;2.35;100.00;99922.84;5082628;28;20373;-84
2022/02/11 11:27:57;;;;;;;16.80;9.15;;;;;;;2.53;100.00;99932.47;5096837;28;20399;-82
2022/02/11 11:30:53;;;;;;;17.02;7.47;;;;;;;2.44;100.00;99943.63;5111163;28;20051;-84
2022/02/11 11:33:38;;;;;;;19.58;8.85;;;;;;;2.52;100.00;99949.72;5097028;28;20040;-82
2022/02/11 11:36:23;;;;;;;19.75;11.25;;;;;;;2.34;100.00;99942.66;5097680;28;20422;-83
2022/02/11 11:39:07;;;;;;;11.38;6.40;;;;;;;2.41;100.00;99948.75;5097231;28;20032;-83
2022/02/11 11:42:07;;;;;;;10.10;6.53;;;;;;;2.25;100.00;99959.78;5096655;28;20044;-82
2022/02/11 11:44:54;;;;;;;7.15;4.93;;;;;;;2.34;100.00;99965.94;5096524;28;20464;-83
2022/02/11 11:47:43;;;;;;;7.38;5.65;;;;;;;2.39;100.00;99968.56;5111413;28;20056;-83
2022/02/11 11:50:31;;;;;;;11.55;7.50;;;;;;;2.29;100.00;99966.72;5111152;28;20040;-84
2022/02/11 11:53:26;;;;;;;7.10;5.00;;;;;;;2.24;100.00;99976.13;5096287;28;20048;-84
2022/02/11 11:56:29;;;;;;;5.97;3.90;;;;;;;2.17;100.00;99987.25;5096985;28;20341;-83
2022/02/11 11:59:14;;;;;;;5.70;3.60;;;;;;;2.07;100.00;99963.88;5096540;28;20044;-83
2022/02/11 12:02:19;;;;;;;7.13;4.15;;;;;;;2.15;100.00;99994.13;5081869;28;20360;-83
2022/02/11 12:05:05;;;;;;;5.72;3.15;;;;;;;2.14;100.00;99998.41;5110375;28;20097;-83
2022/02/11 12:07:50;;;;;;;5.85;3.90;;;;;;;2.15;100.00;100007.94;5111016;28;20040;-84
2022/02/11 12:10:35;;;;;;;4.78;3.25;;;;;;;2.14;100.00;100013.91;5081868;28;20048;-83
2022/02/11 12:13:20;;;;;;;4.15;2.40;;;;;;;2.20;100.00;100013.13;5096795;28;20048;-83
2022/02/11 12:16:05;;;;;;;2.28;1.35;;;;;;;2.16;100.00;100025.16;5096125;28;20044;-82
2022/02/11 12:18:50;;;;;;;4.68;2.40;;;;;;;2.12;100.00;100023.41;5096622;28;20083;-84
2022/02/11 12:21:34;;;;;;;3.63;2.47;;;;;;;2.05;100.00;100022.44;5110258;28;20060;-83
2022/02/11 12:27:25;;;;;;;8.02;4.47;;;;;;;2.22;100.00;100024.38;5095668;28;20094;-83
2022/02/11 12:30:14;;;;;;;19.98;12.10;;;;;;;2.24;100.00;100035.56;5110071;28;20040;-82
2022/02/11 12:32:59;;;;;;;95.22;49.50;;;;;;;2.24;100.00;100030.41;5095890;28;20048;-82
2022/02/11 12:35:45;;;;;;;18.38;10.52;;;;;;;2.30;100.00;100038.25;5095625;28;20345;-82
2022/02/11 12:38:29;;;;;;;16.67;11.45;;;;;;;2.31;100.00;100032.25;5095507;28;20491;-83
2022/02/11 12:41:14;;;;;;;6.65;4.80;;;;;;;2.37;100.00;100037.47;5096339;28;20335;-82
2022/02/11 12:43:59;;;;;;;5.15;3.80;;;;;;;2.38;100.00;100038.34;5096095;28;20054;-84
2022/02/11 12:46:43;;;;;;;7.15;4.53;;;;;;;2.41;100.00;100034.09;5096013;28;20350;-82
2022/02/11 12:49:33;;;;;;;4.88;3.15;;;;;;;2.45;100.00;100043.59;5109766;28;20093;-84
2022/02/11 12:52:26;;;;;;;6.28;2.72;;;;;;;2.21;100.00;100046.78;5079958;28;20388;-85
2022/02/11 12:55:19;;;;;;;10.18;6.38;;;;;;;2.22;100.00;100045.91;5107908;28;20036;-83
2022/02/11 12:58:08;;;;;;;5.93;2.78;;;;;;;2.28;100.00;100050.31;5094282;28;20036;-83
2022/02/11 13:00:55;;;;;;;6.28;4.18;;;;;;;2.38;100.00;100059.03;5093524;28;20036;-82
2022/02/11 13:03:47;;;;;;;9.70;5.22;;;;;;;2.42;100.00;100058.22;5093471;28;20046;-82
2022/02/11 13:06:33;;;;;;;7.82;5.63;;;;;;;2.62;100.00;100050.69;5094203;28;20101;-84
2022/02/11 13:09:21;;;;;;;28.17;18.75;;;;;;;2.71;100.00;100063.72;5094196;28;20036;-80
2022/02/11 13:12:06;;;;;;;6.55;5.55;;;;;;;2.78;100.00;100071.53;5079511;28;20059;-81
2022/02/11 13:14:51;;;;;;;4.95;3.95;;;;;;;2.82;100.00;100085.38;5094133;28;20066;-81
2022/02/11 13:17:36;;;;;;;4.07;3.38;;;;;;;2.73;100.00;100074.94;5095060;28;20048;-81
2022/02/11 13:20:22;;;;;;;5.00;2.78;;;;;;;2.86;100.00;100087.16;5109533;28;20059;-81
2022/02/11 13:23:10;;;;;;;5.80;3.67;;;;;;;2.75;100.00;100092.22;5109275;28;20354;-81
2022/02/11 13:25:56;;;;;;;8.02;3.53;;;;;;;2.83;100.00;100089.72;5095643;28;20040;-81
2022/02/11 13:28:50;;;;;;;8.50;5.47;;;;;;;2.77;100.00;100094.81;5097652;28;20054;-82
2022/02/11 13:31:48;;;;;;;5.78;4.13;;;;;;;2.73;100.00;100096.53;5099441;28;20036;-82
2022/02/11 13:34:33;;;;;;;10.45;8.13;;;;;;;2.74;100.00;100105.13;5099061;28;20043;-81
2022/02/11 13:37:18;;;;;;;18.05;12.45;;;;;;;2.75;100.00;100107.72;5099974;28;20036;-82
2022/02/11 13:40:19;;;;;;;13.02;9.73;;;;;;;2.95;100.00;100107.06;5085211;28;20402;-81
2022/02/11 13:43:08;;;;;;;11.07;9.02;;;;;;;3.15;100.00;100115.94;5113299;28;20044;-82
2022/02/11 13:45:57;;;;;;;5.88;5.28;;;;;;;3.13;100.00;100120.22;5098855;28;20410;-81
2022/02/11 13:48:53;;;;;;;5.55;3.83;;;;;;;3.23;100.00;100134.97;5098763;28;20044;-81
2022/02/11 13:51:39;;;;;;;4.97;3.28;;;;;;;3.00;100.00;100136.47;5098770;28;20358;-81
2022/02/11 13:54:23;;;;;;;6.10;3.88;;;;;;;3.08;100.00;100136.53;5099368;28;20036;-82
2022/02/11 13:57:21;;;;;;;5.70;4.70;;;;;;;2.72;100.00;100141.31;5099331;28;20043;-82
2022/02/11 14:00:37;;;;;;;7.05;4.75;;;;;;;2.85;100.00;100159.59;5113357;28;20123;-82
2022/02/11 14:03:27;;;;;;;9.32;4.75;;;;;;;2.85;100.00;100162.16;5097062;28;20086;-81
2022/02/11 14:06:17;;;;;;;4.65;2.95;;;;;;;2.86;100.00;100167.38;5097487;28;20047;-81
2022/02/11 14:09:06;;;;;;;8.90;4.47;;;;;;;2.77;100.00;100165.53;5083395;28;20051;-81
2022/02/11 14:11:50;;;;;;;10.85;5.78;;;;;;;2.99;100.00;100163.19;5083731;28;20117;-81
2022/02/11 14:14:35;;;;;;;23.27;8.82;;;;;;;2.89;100.00;100167.38;5098239;28;20040;-81
2022/02/11 14:17:19;;;;;;;13.95;8.05;;;;;;;3.02;100.00;100169.28;5083582;28;20040;-82
2022/02/11 14:20:04;;;;;;;14.20;7.25;;;;;;;3.02;100.00;100173.56;5098013;28;20101;-81
2022/02/11 14:22:50;;;;;;;10.68;5.47;;;;;;;3.07;100.00;100177.09;5098556;28;20080;-81
2022/02/11 14:25:34;;;;;;;6.70;3.67;;;;;;;3.10;100.00;100187.47;5098288;28;20048;-81
2022/02/11 14:28:20;;;;;;;11.57;6.10;;;;;;;3.08;100.00;100196.06;5098509;28;20048;-81
2022/02/11 14:31:07;;;;;;;13.20;5.97;;;;;;;3.01;100.00;100189.97;5112311;28;20351;-81
2022/02/11 14:33:51;;;;;;;6.80;2.88;;;;;;;3.03;100.00;100201.22;5084082;28;20044;-82
2022/02/11 14:36:38;;;;;;;6.60;3.75;;;;;;;3.12;100.00;100213.38;5099159;28;20423;-82
2022/02/11 14:39:22;;;;;;;10.70;4.55;;;;;;;3.16;100.00;100223.78;5112098;28;20104;-82
2022/02/11 14:42:07;;;;;;;4.75;3.15;;;;;;;2.93;100.00;100226.09;5097772;28;20062;-81
2022/02/11 14:44:52;;;;;;;16.20;7.78;;;;;;;2.91;100.00;100227.78;5097645;28;20040;-81
2022/02/11 14:47:37;;;;;;;9.80;4.15;;;;;;;2.98;100.00;100232.19;5112371;28;20055;-81
2022/02/11 14:50:21;;;;;;;5.82;3.35;;;;;;;2.50;100.00;100162.59;5097570;28;20040;-80
2022/02/11 14:53:06;;;;;;;4.43;3.08;;;;;;;2.76;100.00;100228.50;5097479;28;20047;-81
2022/02/11 14:55:50;;;;;;;5.63;3.53;;;;;;;2.76;100.00;100241.44;5111767;28;20044;-81
2022/02/11 14:58:34;;;;;;;8.98;4.78;;;;;;;2.78;100.00;100251.78;5097321;28;20093;-81
2022/02/11 15:01:19;;;;;;;6.25;3.80;;;;;;;2.84;100.00;100246.69;5098003;28;20063;-81
2022/02/11 15:04:03;;;;;;;6.15;3.53;;;;;;;2.68;100.00;100245.59;5083275;28;20040;-81
2022/02/11 15:06:51;;;;;;;12.02;7.22;;;;;;;2.79;100.00;100256.09;5098477;28;20455;-80
2022/02/11 15:09:35;;;;;;;8.20;5.20;;;;;;;2.86;100.00;100257.94;5097156;28;20052;-81
2022/02/11 15:12:19;;;;;;;8.95;4.53;;;;;;;2.96;100.00;100258.94;5111512;28;20415;-81
2022/02/11 15:15:04;;;;;;;6.20;3.35;;;;;;;2.86;100.00;100269.97;5097738;28;20349;-80
2022/02/11 15:17:48;;;;;;;72.00;31.48;;;;;;;2.88;100.00;100283.81;5097373;28;20044;-81
2022/02/11 15:20:37;;;;;;;20.25;10.00;;;;;;;2.98;100.00;100277.91;5097115;28;20083;-80
2022/02/11 15:23:26;;;;;;;12.88;8.90;;;;;;;2.88;100.00;100283.81;5082651;28;20052;-75
2022/02/11 15:26:10;;;;;;;9.02;6.50;;;;;;;2.86;100.00;100281.22;5096784;28;20067;-75
2022/02/11 15:28:55;;;;;;;6.88;3.80;;;;;;;2.78;100.00;100288.00;5096768;28;20442;-75
2022/02/11 15:31:40;;;;;;;5.35;3.17;;;;;;;2.71;100.00;100292.22;5097223;28;20048;-75
2022/02/11 15:34:24;;;;;;;4.63;2.50;;;;;;;2.62;100.00;100286.91;5097137;28;20425;-75
2022/02/11 15:37:08;;;;;;;6.38;3.33;;;;;;;2.71;100.00;100288.75;5097265;28;20051;-75
2022/02/11 15:39:52;;;;;;;5.60;3.47;;;;;;;2.52;100.00;100280.72;5096535;28;20044;-75
2022/02/11 15:42:37;;;;;;;9.23;5.65;;;;;;;2.71;100.00;100302.56;5097200;28;20047;-75
2022/02/11 15:45:22;;;;;;;14.10;7.85;;;;;;;2.75;100.00;100308.66;5096361;28;20399;-75
2022/02/11 15:48:07;;;;;;;22.40;12.48;;;;;;;2.70;100.00;100303.41;5096401;28;20040;-75
2022/02/11 15:50:51;;;;;;;16.60;7.32;;;;;;;2.71;100.00;100307.72;5096724;28;20036;-75
2022/02/11 15:53:37;;;;;;;9.90;5.30;;;;;;;2.70;100.00;100300.84;5096506;28;20051;-75
2022/02/11 15:56:21;;;;;;;11.57;6.18;;;;;;;2.70;100.00;100308.59;5096984;28;20119;-75
2022/02/11 15:59:06;;;;;;;12.02;6.75;;;;;;;2.66;100.00;100311.09;5096169;28;20036;-75
2022/02/11 16:01:51;;;;;;;11.43;6.13;;;;;;;2.72;100.00;100309.47;5096077;28;20070;-75
2022/02/11 16:04:36;;;;;;;24.30;10.57;;;;;;;2.74;100.00;100318.13;5095997;28;20044;-75
2022/02/11 16:07:20;;;;;;;18.27;8.48;;;;;;;2.81;100.00;100327.72;5095982;28;20493;-75
2022/02/11 16:10:06;;;;;;;15.60;7.93;;;;;;;2.77;100.00;100325.94;5081634;28;20113;-75
2022/02/11 16:12:51;;;;;;;18.65;9.73;;;;;;;2.83;100.00;100340.69;5095965;28;20044;-75
2022/02/11 16:15:36;;;;;;;20.83;9.02;;;;;;;2.70;100.00;100326.69;5081696;28;20346;-75
2022/02/11 16:18:23;;;;;;;18.90;11.35;;;;;;;2.69;100.00;100348.22;5095963;28;20040;-75
2022/02/11 16:21:08;;;;;;;34.53;24.65;;;;;;;2.64;100.00;100341.25;5081399;28;20366;-75
2022/02/11 16:23:53;;;;;;;82.40;57.60;;;;;;;2.67;100.00;100329.25;5096007;28;20040;-75
2022/02/11 16:26:38;;;;;;;19.55;13.50;;;;;;;2.71;100.00;100345.66;5095610;28;20048;-75
2022/02/11 16:29:23;;;;;;;15.07;8.50;;;;;;;2.74;100.00;100351.75;5080814;28;20051;-75
2022/02/11 16:32:08;;;;;;;14.52;6.93;;;;;;;2.73;100.00;100349.13;5081075;28;20051;-75
2022/02/11 16:34:52;;;;;;;12.32;6.60;;;;;;;2.57;100.00;100346.34;5079626;28;20048;-75
2022/02/11 16:37:37;;;;;;;14.18;7.40;;;;;;;2.40;100.00;100344.31;5094439;28;20044;-75
2022/02/11 16:40:21;;;;;;;17.73;8.32;;;;;;;2.26;100.00;100349.25;5094576;28;20105;-75